Current Conditions
Partly Cloudy
Conditions



Pressure
1007.92 (hPa) - 29.76 (inHG)
Visibility

10.0 (km) - 6.2 (miles)
Temperature
21  °C
Temperature
18  °C
Dewpoint
83  %
 Humidity
Wind Speed
11  km/h
6  kts
7  mph
3.1  m/s
Wind Direction
N
45°
E
90°
135°
S
180°
225°
W
270°
315°
 80°

Due East
Airport Data
LIPI
Rivolto Air Base
Metar :LIPI 211655Z 08006KT 9999 FEW040 BKN080 21/18 Q1008 RMK BKN VIS MIN 9999 WIND THR06 10004KT WIND THR24 /////KT BLU
Thu 21st September 18:55 pm
Raw Metar Info
Raw METAR is the most common format in the world for the transmission of observational weather data. It is highly standardized through the International Civil Aviation Organization (ICAO), which allows it to be understood throughout most of the world.
API Info
Data Provided by
https://www.checkwx.com/weather/LIPI

Aviation Weather providing METAR, TAF, AIRMET, SIGMET and OUTLOOK Weather Reports
© Info
CSS/SVG/PHP scripts were developed by weather34 for use in the weather34 template © 2015-2023

Guide Info provided by Metar-Wikipedia